sensor_id;sensor_type;location;lat;lon;timestamp;P1;durP1;ratioP1;P2;durP2;ratioP2
9783;SDS011;4931;44.874;-1.092;2023-08-20T00:00:50;19.85;;;3.85;;
9783;SDS011;4931;44.874;-1.092;2023-08-20T00:03:16;21.33;;;4.22;;
9783;SDS011;4931;44.874;-1.092;2023-08-20T00:05:42;18.52;;;3.83;;
9783;SDS011;4931;44.874;-1.092;2023-08-20T00:08:08;14.95;;;3.55;;
9783;SDS011;4931;44.874;-1.092;2023-08-20T00:10:34;16.08;;;3.88;;
9783;SDS011;4931;44.874;-1.092;2023-08-20T00:12:59;18.67;;;3.60;;
9783;SDS011;4931;44.874;-1.092;2023-08-20T00:15:25;12.43;;;3.13;;
9783;SDS011;4931;44.874;-1.092;2023-08-20T00:17:54;20.73;;;4.10;;
9783;SDS011;4931;44.874;-1.092;2023-08-20T00:20:22;13.55;;;3.30;;
9783;SDS011;4931;44.874;-1.092;2023-08-20T00:22:48;20.58;;;3.60;;
9783;SDS011;4931;44.874;-1.092;2023-08-20T00:25:15;19.20;;;3.80;;
9783;SDS011;4931;44.874;-1.092;2023-08-20T00:27:41;18.77;;;3.63;;
9783;SDS011;4931;44.874;-1.092;2023-08-20T00:30:08;16.85;;;3.20;;
9783;SDS011;4931;44.874;-1.092;2023-08-20T00:32:34;22.85;;;3.97;;
9783;SDS011;4931;44.874;-1.092;2023-08-20T00:35:00;21.20;;;3.80;;
9783;SDS011;4931;44.874;-1.092;2023-08-20T00:37:28;17.70;;;3.60;;
9783;SDS011;4931;44.874;-1.092;2023-08-20T00:39:54;20.42;;;3.25;;
9783;SDS011;4931;44.874;-1.092;2023-08-20T00:42:19;16.50;;;3.35;;
9783;SDS011;4931;44.874;-1.092;2023-08-20T00:44:45;16.70;;;3.35;;
9783;SDS011;4931;44.874;-1.092;2023-08-20T00:47:10;18.08;;;3.33;;
9783;SDS011;4931;44.874;-1.092;2023-08-20T00:49:38;15.23;;;2.90;;
9783;SDS011;4931;44.874;-1.092;2023-08-20T00:52:04;20.08;;;3.00;;
9783;SDS011;4931;44.874;-1.092;2023-08-20T00:54:33;15.55;;;3.00;;
9783;SDS011;4931;44.874;-1.092;2023-08-20T00:56:59;15.55;;;3.33;;
9783;SDS011;4931;44.874;-1.092;2023-08-20T00:59:25;13.35;;;2.70;;
9783;SDS011;4931;44.874;-1.092;2023-08-20T01:01:51;12.27;;;3.25;;
9783;SDS011;4931;44.874;-1.092;2023-08-20T01:04:16;12.77;;;2.80;;
9783;SDS011;4931;44.874;-1.092;2023-08-20T01:15:03;14.95;;;2.60;;
9783;SDS011;4931;44.874;-1.092;2023-08-20T01:17:29;16.88;;;2.60;;
9783;SDS011;4931;44.874;-1.092;2023-08-20T01:19:56;12.23;;;2.67;;
9783;SDS011;4931;44.874;-1.092;2023-08-20T01:30:44;10.38;;;2.40;;
9783;SDS011;4931;44.874;-1.092;2023-08-20T01:33:11;13.13;;;2.13;;
9783;SDS011;4931;44.874;-1.092;2023-08-20T01:35:37;15.48;;;2.60;;
9783;SDS011;4931;44.874;-1.092;2023-08-20T01:38:03;10.68;;;2.30;;
9783;SDS011;4931;44.874;-1.092;2023-08-20T01:40:29;17.58;;;2.25;;
9783;SDS011;4931;44.874;-1.092;2023-08-20T01:42:55;12.40;;;2.20;;
9783;SDS011;4931;44.874;-1.092;2023-08-20T01:45:20;13.18;;;2.30;;
9783;SDS011;4931;44.874;-1.092;2023-08-20T01:47:47;14.88;;;2.67;;
9783;SDS011;4931;44.874;-1.092;2023-08-20T01:50:12;12.77;;;2.25;;
9783;SDS011;4931;44.874;-1.092;2023-08-20T01:52:38;11.38;;;2.25;;
9783;SDS011;4931;44.874;-1.092;2023-08-20T01:55:03;12.13;;;2.42;;
9783;SDS011;4931;44.874;-1.092;2023-08-20T01:57:30;13.45;;;2.20;;
9783;SDS011;4931;44.874;-1.092;2023-08-20T01:59:56;11.82;;;2.00;;
9783;SDS011;4931;44.874;-1.092;2023-08-20T02:02:23;14.40;;;2.45;;
9783;SDS011;4931;44.874;-1.092;2023-08-20T02:04:48;12.60;;;2.70;;
9783;SDS011;4931;44.874;-1.092;2023-08-20T02:07:14;12.00;;;2.33;;
9783;SDS011;4931;44.874;-1.092;2023-08-20T02:09:40;11.35;;;2.08;;
9783;SDS011;4931;44.874;-1.092;2023-08-20T02:12:05;10.23;;;2.08;;
9783;SDS011;4931;44.874;-1.092;2023-08-20T02:14:31;11.20;;;1.90;;
9783;SDS011;4931;44.874;-1.092;2023-08-20T02:17:00;8.52;;;1.90;;
9783;SDS011;4931;44.874;-1.092;2023-08-20T02:19:29;11.75;;;2.25;;
9783;SDS011;4931;44.874;-1.092;2023-08-20T02:21:54;11.82;;;2.42;;
9783;SDS011;4931;44.874;-1.092;2023-08-20T02:24:20;14.82;;;2.78;;
9783;SDS011;4931;44.874;-1.092;2023-08-20T02:26:45;10.10;;;2.08;;
9783;SDS011;4931;44.874;-1.092;2023-08-20T02:29:11;6.93;;;1.88;;
9783;SDS011;4931;44.874;-1.092;2023-08-20T02:31:36;11.07;;;1.92;;
9783;SDS011;4931;44.874;-1.092;2023-08-20T02:34:02;10.05;;;2.38;;
9783;SDS011;4931;44.874;-1.092;2023-08-20T02:36:27;16.85;;;2.30;;
9783;SDS011;4931;44.874;-1.092;2023-08-20T02:38:53;9.63;;;2.40;;
9783;SDS011;4931;44.874;-1.092;2023-08-20T02:41:18;10.15;;;2.33;;
9783;SDS011;4931;44.874;-1.092;2023-08-20T02:43:44;12.50;;;2.30;;
9783;SDS011;4931;44.874;-1.092;2023-08-20T02:46:10;14.23;;;2.42;;
9783;SDS011;4931;44.874;-1.092;2023-08-20T02:48:36;10.75;;;2.00;;
9783;SDS011;4931;44.874;-1.092;2023-08-20T02:51:01;10.82;;;2.38;;
9783;SDS011;4931;44.874;-1.092;2023-08-20T02:53:27;12.18;;;2.40;;
9783;SDS011;4931;44.874;-1.092;2023-08-20T02:55:53;12.27;;;2.38;;
9783;SDS011;4931;44.874;-1.092;2023-08-20T02:58:19;13.00;;;2.17;;
9783;SDS011;4931;44.874;-1.092;2023-08-20T03:00:44;10.38;;;1.98;;
9783;SDS011;4931;44.874;-1.092;2023-08-20T03:03:10;10.73;;;2.10;;
9783;SDS011;4931;44.874;-1.092;2023-08-20T03:05:36;11.10;;;1.90;;
9783;SDS011;4931;44.874;-1.092;2023-08-20T03:08:02;10.88;;;2.17;;
9783;SDS011;4931;44.874;-1.092;2023-08-20T03:10:31;15.23;;;2.35;;
9783;SDS011;4931;44.874;-1.092;2023-08-20T03:12:58;12.48;;;2.20;;
9783;SDS011;4931;44.874;-1.092;2023-08-20T03:15:24;9.05;;;1.85;;
9783;SDS011;4931;44.874;-1.092;2023-08-20T03:17:50;13.93;;;2.55;;
9783;SDS011;4931;44.874;-1.092;2023-08-20T03:20:15;12.77;;;2.10;;
9783;SDS011;4931;44.874;-1.092;2023-08-20T03:22:41;10.98;;;2.20;;
9783;SDS011;4931;44.874;-1.092;2023-08-20T03:25:06;10.88;;;2.15;;
9783;SDS011;4931;44.874;-1.092;2023-08-20T03:27:32;13.65;;;2.15;;
9783;SDS011;4931;44.874;-1.092;2023-08-20T03:29:58;11.57;;;2.28;;
9783;SDS011;4931;44.874;-1.092;2023-08-20T03:32:23;12.05;;;2.15;;
9783;SDS011;4931;44.874;-1.092;2023-08-20T03:34:49;18.13;;;2.85;;
9783;SDS011;4931;44.874;-1.092;2023-08-20T03:37:15;17.95;;;2.35;;
9783;SDS011;4931;44.874;-1.092;2023-08-20T03:39:41;14.10;;;2.15;;
9783;SDS011;4931;44.874;-1.092;2023-08-20T03:42:06;13.57;;;2.13;;
9783;SDS011;4931;44.874;-1.092;2023-08-20T03:44:32;13.80;;;2.65;;
9783;SDS011;4931;44.874;-1.092;2023-08-20T03:46:57;12.38;;;2.63;;
9783;SDS011;4931;44.874;-1.092;2023-08-20T03:49:23;16.15;;;2.50;;
9783;SDS011;4931;44.874;-1.092;2023-08-20T03:51:48;13.98;;;2.47;;
9783;SDS011;4931;44.874;-1.092;2023-08-20T03:54:14;10.15;;;2.05;;
9783;SDS011;4931;44.874;-1.092;2023-08-20T03:56:39;11.40;;;2.45;;
9783;SDS011;4931;44.874;-1.092;2023-08-20T03:59:05;13.90;;;2.35;;
9783;SDS011;4931;44.874;-1.092;2023-08-20T04:01:30;11.25;;;2.20;;
9783;SDS011;4931;44.874;-1.092;2023-08-20T04:03:56;9.82;;;2.45;;
9783;SDS011;4931;44.874;-1.092;2023-08-20T04:06:22;12.98;;;2.10;;
9783;SDS011;4931;44.874;-1.092;2023-08-20T04:08:47;9.65;;;2.22;;
9783;SDS011;4931;44.874;-1.092;2023-08-20T04:11:13;16.25;;;2.55;;
9783;SDS011;4931;44.874;-1.092;2023-08-20T04:13:38;14.32;;;2.20;;
9783;SDS011;4931;44.874;-1.092;2023-08-20T04:16:05;12.63;;;2.45;;
9783;SDS011;4931;44.874;-1.092;2023-08-20T04:18:30;11.77;;;2.58;;
9783;SDS011;4931;44.874;-1.092;2023-08-20T04:20:55;14.50;;;2.53;;
9783;SDS011;4931;44.874;-1.092;2023-08-20T04:23:22;11.45;;;2.20;;
9783;SDS011;4931;44.874;-1.092;2023-08-20T04:25:48;14.50;;;2.22;;
9783;SDS011;4931;44.874;-1.092;2023-08-20T04:28:13;11.57;;;2.35;;
9783;SDS011;4931;44.874;-1.092;2023-08-20T04:30:39;12.25;;;2.58;;
9783;SDS011;4931;44.874;-1.092;2023-08-20T04:33:04;14.85;;;2.47;;
9783;SDS011;4931;44.874;-1.092;2023-08-20T04:35:30;11.23;;;2.40;;
9783;SDS011;4931;44.874;-1.092;2023-08-20T04:37:56;8.43;;;1.70;;
9783;SDS011;4931;44.874;-1.092;2023-08-20T04:40:21;10.27;;;2.05;;
9783;SDS011;4931;44.874;-1.092;2023-08-20T04:42:48;11.45;;;2.38;;
9783;SDS011;4931;44.874;-1.092;2023-08-20T04:45:14;11.57;;;2.08;;
9783;SDS011;4931;44.874;-1.092;2023-08-20T04:47:39;8.95;;;2.22;;
9783;SDS011;4931;44.874;-1.092;2023-08-20T04:50:05;10.07;;;2.13;;
9783;SDS011;4931;44.874;-1.092;2023-08-20T04:52:33;15.18;;;2.40;;
9783;SDS011;4931;44.874;-1.092;2023-08-20T04:54:59;13.95;;;2.30;;
9783;SDS011;4931;44.874;-1.092;2023-08-20T04:57:25;10.27;;;2.00;;
9783;SDS011;4931;44.874;-1.092;2023-08-20T04:59:51;12.98;;;2.33;;
9783;SDS011;4931;44.874;-1.092;2023-08-20T05:02:16;14.52;;;2.42;;
9783;SDS011;4931;44.874;-1.092;2023-08-20T05:04:42;10.18;;;2.47;;
9783;SDS011;4931;44.874;-1.092;2023-08-20T05:07:07;14.82;;;2.67;;
9783;SDS011;4931;44.874;-1.092;2023-08-20T05:09:33;9.65;;;2.20;;
9783;SDS011;4931;44.874;-1.092;2023-08-20T05:12:02;11.32;;;2.38;;
9783;SDS011;4931;44.874;-1.092;2023-08-20T05:14:28;12.68;;;2.47;;
9783;SDS011;4931;44.874;-1.092;2023-08-20T05:16:54;9.93;;;2.20;;
9783;SDS011;4931;44.874;-1.092;2023-08-20T05:19:19;11.98;;;2.35;;
9783;SDS011;4931;44.874;-1.092;2023-08-20T05:21:45;12.18;;;2.15;;
9783;SDS011;4931;44.874;-1.092;2023-08-20T05:24:11;10.77;;;2.25;;
9783;SDS011;4931;44.874;-1.092;2023-08-20T05:26:36;14.05;;;2.42;;
9783;SDS011;4931;44.874;-1.092;2023-08-20T05:29:01;9.93;;;2.30;;
9783;SDS011;4931;44.874;-1.092;2023-08-20T05:31:27;15.88;;;2.45;;
9783;SDS011;4931;44.874;-1.092;2023-08-20T05:33:53;9.77;;;2.22;;
9783;SDS011;4931;44.874;-1.092;2023-08-20T05:36:18;13.57;;;2.58;;
9783;SDS011;4931;44.874;-1.092;2023-08-20T05:38:44;9.82;;;2.47;;
9783;SDS011;4931;44.874;-1.092;2023-08-20T05:41:09;11.45;;;2.17;;
9783;SDS011;4931;44.874;-1.092;2023-08-20T05:43:35;8.13;;;2.13;;
9783;SDS011;4931;44.874;-1.092;2023-08-20T05:46:03;14.63;;;2.83;;
9783;SDS011;4931;44.874;-1.092;2023-08-20T05:48:29;10.23;;;2.63;;
9783;SDS011;4931;44.874;-1.092;2023-08-20T05:50:55;10.00;;;2.33;;
9783;SDS011;4931;44.874;-1.092;2023-08-20T05:53:23;10.93;;;2.10;;
9783;SDS011;4931;44.874;-1.092;2023-08-20T05:55:49;16.50;;;2.72;;
9783;SDS011;4931;44.874;-1.092;2023-08-20T05:58:15;9.55;;;2.15;;
9783;SDS011;4931;44.874;-1.092;2023-08-20T06:00:40;13.23;;;2.30;;
9783;SDS011;4931;44.874;-1.092;2023-08-20T06:03:06;10.38;;;2.60;;
9783;SDS011;4931;44.874;-1.092;2023-08-20T06:05:34;12.07;;;2.58;;
9783;SDS011;4931;44.874;-1.092;2023-08-20T06:08:00;16.33;;;2.47;;
9783;SDS011;4931;44.874;-1.092;2023-08-20T06:10:25;10.73;;;2.15;;
9783;SDS011;4931;44.874;-1.092;2023-08-20T06:12:51;9.10;;;2.00;;
9783;SDS011;4931;44.874;-1.092;2023-08-20T06:15:17;12.18;;;2.22;;
9783;SDS011;4931;44.874;-1.092;2023-08-20T06:17:42;13.82;;;2.30;;
9783;SDS011;4931;44.874;-1.092;2023-08-20T06:20:08;9.32;;;1.90;;
9783;SDS011;4931;44.874;-1.092;2023-08-20T06:22:35;9.43;;;2.03;;
9783;SDS011;4931;44.874;-1.092;2023-08-20T06:25:01;9.93;;;1.90;;
9783;SDS011;4931;44.874;-1.092;2023-08-20T06:27:27;9.90;;;2.38;;
9783;SDS011;4931;44.874;-1.092;2023-08-20T06:29:52;7.95;;;1.95;;
9783;SDS011;4931;44.874;-1.092;2023-08-20T06:32:18;11.82;;;2.08;;
9783;SDS011;4931;44.874;-1.092;2023-08-20T06:34:43;10.70;;;2.10;;
9783;SDS011;4931;44.874;-1.092;2023-08-20T06:37:09;10.43;;;2.13;;
9783;SDS011;4931;44.874;-1.092;2023-08-20T06:39:34;8.18;;;1.98;;
9783;SDS011;4931;44.874;-1.092;2023-08-20T06:42:00;16.92;;;2.67;;
9783;SDS011;4931;44.874;-1.092;2023-08-20T06:44:25;11.50;;;2.53;;
9783;SDS011;4931;44.874;-1.092;2023-08-20T06:46:51;10.68;;;2.30;;
9783;SDS011;4931;44.874;-1.092;2023-08-20T06:49:16;9.50;;;2.22;;
9783;SDS011;4931;44.874;-1.092;2023-08-20T06:51:42;10.10;;;2.00;;
9783;SDS011;4931;44.874;-1.092;2023-08-20T06:54:07;9.85;;;2.00;;
9783;SDS011;4931;44.874;-1.092;2023-08-20T06:56:33;11.80;;;2.47;;
9783;SDS011;4931;44.874;-1.092;2023-08-20T06:58:59;13.30;;;3.30;;
9783;SDS011;4931;44.874;-1.092;2023-08-20T07:01:25;18.02;;;4.15;;
9783;SDS011;4931;44.874;-1.092;2023-08-20T07:03:50;15.48;;;3.80;;
9783;SDS011;4931;44.874;-1.092;2023-08-20T07:06:16;13.32;;;3.75;;
9783;SDS011;4931;44.874;-1.092;2023-08-20T07:08:43;14.90;;;3.75;;
9783;SDS011;4931;44.874;-1.092;2023-08-20T07:11:09;14.18;;;3.58;;
9783;SDS011;4931;44.874;-1.092;2023-08-20T07:13:34;10.07;;;2.83;;
9783;SDS011;4931;44.874;-1.092;2023-08-20T07:16:00;13.68;;;3.08;;
9783;SDS011;4931;44.874;-1.092;2023-08-20T07:18:26;11.15;;;2.63;;
9783;SDS011;4931;44.874;-1.092;2023-08-20T07:20:51;10.90;;;1.98;;
9783;SDS011;4931;44.874;-1.092;2023-08-20T07:23:17;7.38;;;1.70;;
9783;SDS011;4931;44.874;-1.092;2023-08-20T07:25:42;8.95;;;2.35;;
9783;SDS011;4931;44.874;-1.092;2023-08-20T07:28:10;7.07;;;2.10;;
9783;SDS011;4931;44.874;-1.092;2023-08-20T07:30:36;8.20;;;2.30;;
9783;SDS011;4931;44.874;-1.092;2023-08-20T07:33:02;10.23;;;2.05;;
9783;SDS011;4931;44.874;-1.092;2023-08-20T07:35:28;9.70;;;2.00;;
9783;SDS011;4931;44.874;-1.092;2023-08-20T07:37:53;10.43;;;2.13;;
9783;SDS011;4931;44.874;-1.092;2023-08-20T07:40:19;7.28;;;2.17;;
9783;SDS011;4931;44.874;-1.092;2023-08-20T07:42:45;8.38;;;2.63;;
9783;SDS011;4931;44.874;-1.092;2023-08-20T07:45:10;9.32;;;2.20;;
9783;SDS011;4931;44.874;-1.092;2023-08-20T07:47:36;9.05;;;1.80;;
9783;SDS011;4931;44.874;-1.092;2023-08-20T07:50:02;11.68;;;2.50;;
9783;SDS011;4931;44.874;-1.092;2023-08-20T07:52:29;8.05;;;2.10;;
9783;SDS011;4931;44.874;-1.092;2023-08-20T07:54:55;6.15;;;2.00;;
9783;SDS011;4931;44.874;-1.092;2023-08-20T07:57:20;6.65;;;1.95;;
9783;SDS011;4931;44.874;-1.092;2023-08-20T07:59:48;7.10;;;2.20;;
9783;SDS011;4931;44.874;-1.092;2023-08-20T08:02:14;8.10;;;2.10;;
9783;SDS011;4931;44.874;-1.092;2023-08-20T08:04:39;9.00;;;2.42;;
9783;SDS011;4931;44.874;-1.092;2023-08-20T08:07:05;8.55;;;2.00;;
9783;SDS011;4931;44.874;-1.092;2023-08-20T08:09:30;6.18;;;2.10;;
9783;SDS011;4931;44.874;-1.092;2023-08-20T08:11:57;8.43;;;2.40;;
9783;SDS011;4931;44.874;-1.092;2023-08-20T08:14:23;8.57;;;1.92;;
9783;SDS011;4931;44.874;-1.092;2023-08-20T08:16:50;8.52;;;2.40;;
9783;SDS011;4931;44.874;-1.092;2023-08-20T08:19:16;6.45;;;2.03;;
9783;SDS011;4931;44.874;-1.092;2023-08-20T08:21:42;7.70;;;2.08;;
9783;SDS011;4931;44.874;-1.092;2023-08-20T08:24:08;7.85;;;2.47;;
9783;SDS011;4931;44.874;-1.092;2023-08-20T08:26:34;5.00;;;1.92;;
9783;SDS011;4931;44.874;-1.092;2023-08-20T08:29:01;8.85;;;2.60;;
9783;SDS011;4931;44.874;-1.092;2023-08-20T08:31:27;7.65;;;2.20;;
9783;SDS011;4931;44.874;-1.092;2023-08-20T08:33:53;8.13;;;2.03;;
9783;SDS011;4931;44.874;-1.092;2023-08-20T08:36:18;5.93;;;2.20;;
9783;SDS011;4931;44.874;-1.092;2023-08-20T08:38:44;8.63;;;2.08;;
9783;SDS011;4931;44.874;-1.092;2023-08-20T08:41:12;6.57;;;2.20;;
9783;SDS011;4931;44.874;-1.092;2023-08-20T08:43:39;4.78;;;2.35;;
9783;SDS011;4931;44.874;-1.092;2023-08-20T08:46:10;7.15;;;2.25;;
9783;SDS011;4931;44.874;-1.092;2023-08-20T08:48:39;5.32;;;2.17;;
9783;SDS011;4931;44.874;-1.092;2023-08-20T08:51:06;11.13;;;2.30;;
9783;SDS011;4931;44.874;-1.092;2023-08-20T08:53:32;7.28;;;2.22;;
9783;SDS011;4931;44.874;-1.092;2023-08-20T08:55:58;6.35;;;2.22;;
9783;SDS011;4931;44.874;-1.092;2023-08-20T08:58:24;5.10;;;2.45;;
9783;SDS011;4931;44.874;-1.092;2023-08-20T09:00:50;6.45;;;2.33;;
9783;SDS011;4931;44.874;-1.092;2023-08-20T09:03:16;5.20;;;2.10;;
9783;SDS011;4931;44.874;-1.092;2023-08-20T09:05:48;5.63;;;2.42;;
9783;SDS011;4931;44.874;-1.092;2023-08-20T09:08:21;9.13;;;2.28;;
9783;SDS011;4931;44.874;-1.092;2023-08-20T09:10:49;6.22;;;2.30;;
9783;SDS011;4931;44.874;-1.092;2023-08-20T09:13:16;5.68;;;2.22;;
9783;SDS011;4931;44.874;-1.092;2023-08-20T09:15:42;5.72;;;2.28;;
9783;SDS011;4931;44.874;-1.092;2023-08-20T09:18:10;5.95;;;2.50;;
9783;SDS011;4931;44.874;-1.092;2023-08-20T09:20:36;5.70;;;2.08;;
9783;SDS011;4931;44.874;-1.092;2023-08-20T09:23:03;8.05;;;2.40;;
9783;SDS011;4931;44.874;-1.092;2023-08-20T09:25:29;9.65;;;2.20;;
9783;SDS011;4931;44.874;-1.092;2023-08-20T09:27:55;4.15;;;2.33;;
9783;SDS011;4931;44.874;-1.092;2023-08-20T09:30:20;6.45;;;2.70;;
9783;SDS011;4931;44.874;-1.092;2023-08-20T09:33:02;5.78;;;2.30;;
9783;SDS011;4931;44.874;-1.092;2023-08-20T09:35:37;6.45;;;2.30;;
9783;SDS011;4931;44.874;-1.092;2023-08-20T09:38:03;6.20;;;2.30;;
9783;SDS011;4931;44.874;-1.092;2023-08-20T09:40:30;6.00;;;2.45;;
9783;SDS011;4931;44.874;-1.092;2023-08-20T09:42:55;3.60;;;2.10;;
9783;SDS011;4931;44.874;-1.092;2023-08-20T09:45:25;5.18;;;2.08;;
9783;SDS011;4931;44.874;-1.092;2023-08-20T09:47:56;5.80;;;2.60;;
9783;SDS011;4931;44.874;-1.092;2023-08-20T09:53:02;5.35;;;2.80;;
9783;SDS011;4931;44.874;-1.092;2023-08-20T09:55:34;6.40;;;2.80;;
9783;SDS011;4931;44.874;-1.092;2023-08-20T09:58:03;6.55;;;2.42;;
9783;SDS011;4931;44.874;-1.092;2023-08-20T10:00:30;4.53;;;2.60;;
9783;SDS011;4931;44.874;-1.092;2023-08-20T10:02:57;6.93;;;2.80;;
9783;SDS011;4931;44.874;-1.092;2023-08-20T10:05:23;6.22;;;2.67;;
9783;SDS011;4931;44.874;-1.092;2023-08-20T10:07:50;5.55;;;2.63;;
9783;SDS011;4931;44.874;-1.092;2023-08-20T10:10:17;6.88;;;3.08;;
9783;SDS011;4931;44.874;-1.092;2023-08-20T10:12:43;6.80;;;2.70;;
9783;SDS011;4931;44.874;-1.092;2023-08-20T10:15:11;6.57;;;2.67;;
9783;SDS011;4931;44.874;-1.092;2023-08-20T10:17:39;6.60;;;2.88;;
9783;SDS011;4931;44.874;-1.092;2023-08-20T10:20:06;6.28;;;2.53;;
9783;SDS011;4931;44.874;-1.092;2023-08-20T10:22:36;5.53;;;2.92;;
9783;SDS011;4931;44.874;-1.092;2023-08-20T10:25:05;7.20;;;2.70;;
9783;SDS011;4931;44.874;-1.092;2023-08-20T10:27:32;8.52;;;2.75;;
9783;SDS011;4931;44.874;-1.092;2023-08-20T10:29:59;6.20;;;2.95;;
9783;SDS011;4931;44.874;-1.092;2023-08-20T10:35:10;5.07;;;2.70;;
9783;SDS011;4931;44.874;-1.092;2023-08-20T10:37:36;5.07;;;2.65;;
9783;SDS011;4931;44.874;-1.092;2023-08-20T10:40:02;6.47;;;3.08;;
9783;SDS011;4931;44.874;-1.092;2023-08-20T10:42:29;8.15;;;3.30;;
9783;SDS011;4931;44.874;-1.092;2023-08-20T10:44:59;5.10;;;3.17;;
9783;SDS011;4931;44.874;-1.092;2023-08-20T10:50:17;6.30;;;3.00;;
9783;SDS011;4931;44.874;-1.092;2023-08-20T10:55:13;8.27;;;3.33;;
9783;SDS011;4931;44.874;-1.092;2023-08-20T10:57:40;5.35;;;3.35;;
9783;SDS011;4931;44.874;-1.092;2023-08-20T11:00:06;6.93;;;3.35;;
9783;SDS011;4931;44.874;-1.092;2023-08-20T11:02:36;5.22;;;2.90;;
9783;SDS011;4931;44.874;-1.092;2023-08-20T11:05:15;7.45;;;3.08;;
9783;SDS011;4931;44.874;-1.092;2023-08-20T11:07:46;6.50;;;2.97;;
9783;SDS011;4931;44.874;-1.092;2023-08-20T11:10:16;4.97;;;2.85;;
9783;SDS011;4931;44.874;-1.092;2023-08-20T11:12:43;5.47;;;3.30;;
9783;SDS011;4931;44.874;-1.092;2023-08-20T11:15:11;5.82;;;3.28;;
9783;SDS011;4931;44.874;-1.092;2023-08-20T11:17:40;6.95;;;3.10;;
9783;SDS011;4931;44.874;-1.092;2023-08-20T11:20:15;8.50;;;3.30;;
9783;SDS011;4931;44.874;-1.092;2023-08-20T11:22:40;6.13;;;2.95;;
9783;SDS011;4931;44.874;-1.092;2023-08-20T11:25:12;6.25;;;3.00;;
9783;SDS011;4931;44.874;-1.092;2023-08-20T11:27:44;11.50;;;3.47;;
9783;SDS011;4931;44.874;-1.092;2023-08-20T11:30:10;7.82;;;3.50;;
9783;SDS011;4931;44.874;-1.092;2023-08-20T11:32:39;8.02;;;3.65;;
9783;SDS011;4931;44.874;-1.092;2023-08-20T11:35:07;9.13;;;3.47;;
9783;SDS011;4931;44.874;-1.092;2023-08-20T11:37:33;6.30;;;3.45;;
9783;SDS011;4931;44.874;-1.092;2023-08-20T11:39:59;7.38;;;3.17;;
9783;SDS011;4931;44.874;-1.092;2023-08-20T11:42:24;7.88;;;3.50;;
9783;SDS011;4931;44.874;-1.092;2023-08-20T11:44:50;6.38;;;2.97;;
9783;SDS011;4931;44.874;-1.092;2023-08-20T11:47:16;6.95;;;2.88;;
9783;SDS011;4931;44.874;-1.092;2023-08-20T11:49:42;7.30;;;3.22;;
9783;SDS011;4931;44.874;-1.092;2023-08-20T11:52:08;4.88;;;2.97;;
9783;SDS011;4931;44.874;-1.092;2023-08-20T11:54:34;7.10;;;3.00;;
9783;SDS011;4931;44.874;-1.092;2023-08-20T11:57:05;4.90;;;2.70;;
9783;SDS011;4931;44.874;-1.092;2023-08-20T12:02:00;7.55;;;3.40;;
9783;SDS011;4931;44.874;-1.092;2023-08-20T12:04:30;5.63;;;3.20;;
9783;SDS011;4931;44.874;-1.092;2023-08-20T12:09:30;6.28;;;3.17;;
9783;SDS011;4931;44.874;-1.092;2023-08-20T12:11:55;6.82;;;3.40;;
9783;SDS011;4931;44.874;-1.092;2023-08-20T12:14:21;6.28;;;3.20;;
9783;SDS011;4931;44.874;-1.092;2023-08-20T12:16:47;6.70;;;3.00;;
9783;SDS011;4931;44.874;-1.092;2023-08-20T12:19:13;6.25;;;3.00;;
9783;SDS011;4931;44.874;-1.092;2023-08-20T12:21:39;7.15;;;3.40;;
9783;SDS011;4931;44.874;-1.092;2023-08-20T12:24:06;6.57;;;3.40;;
9783;SDS011;4931;44.874;-1.092;2023-08-20T12:26:32;7.28;;;4.38;;
9783;SDS011;4931;44.874;-1.092;2023-08-20T12:28:57;8.57;;;3.70;;
9783;SDS011;4931;44.874;-1.092;2023-08-20T12:31:23;5.80;;;3.08;;
9783;SDS011;4931;44.874;-1.092;2023-08-20T12:33:48;9.68;;;3.85;;
9783;SDS011;4931;44.874;-1.092;2023-08-20T12:36:14;7.32;;;2.92;;
9783;SDS011;4931;44.874;-1.092;2023-08-20T12:38:39;5.32;;;3.15;;
9783;SDS011;4931;44.874;-1.092;2023-08-20T12:41:06;7.22;;;3.17;;
9783;SDS011;4931;44.874;-1.092;2023-08-20T12:43:32;6.55;;;3.15;;
9783;SDS011;4931;44.874;-1.092;2023-08-20T12:45:57;8.75;;;3.50;;
9783;SDS011;4931;44.874;-1.092;2023-08-20T12:48:22;8.95;;;3.75;;
9783;SDS011;4931;44.874;-1.092;2023-08-20T12:50:48;5.65;;;3.40;;
9783;SDS011;4931;44.874;-1.092;2023-08-20T12:53:13;7.47;;;3.88;;
9783;SDS011;4931;44.874;-1.092;2023-08-20T12:55:39;7.53;;;3.47;;
9783;SDS011;4931;44.874;-1.092;2023-08-20T12:58:04;6.78;;;3.70;;
9783;SDS011;4931;44.874;-1.092;2023-08-20T13:00:30;4.82;;;3.60;;
9783;SDS011;4931;44.874;-1.092;2023-08-20T13:02:56;7.00;;;3.50;;
9783;SDS011;4931;44.874;-1.092;2023-08-20T13:05:22;7.40;;;3.65;;
9783;SDS011;4931;44.874;-1.092;2023-08-20T13:07:49;5.95;;;3.75;;
9783;SDS011;4931;44.874;-1.092;2023-08-20T13:10:15;5.90;;;3.30;;
9783;SDS011;4931;44.874;-1.092;2023-08-20T13:12:41;7.28;;;3.70;;
9783;SDS011;4931;44.874;-1.092;2023-08-20T13:15:16;9.25;;;3.97;;
9783;SDS011;4931;44.874;-1.092;2023-08-20T13:17:42;8.02;;;3.40;;
9783;SDS011;4931;44.874;-1.092;2023-08-20T13:20:08;6.45;;;2.72;;
9783;SDS011;4931;44.874;-1.092;2023-08-20T13:22:34;9.65;;;3.10;;
9783;SDS011;4931;44.874;-1.092;2023-08-20T13:25:00;6.25;;;2.85;;
9783;SDS011;4931;44.874;-1.092;2023-08-20T13:27:25;8.77;;;2.80;;
9783;SDS011;4931;44.874;-1.092;2023-08-20T13:29:51;8.50;;;2.75;;
9783;SDS011;4931;44.874;-1.092;2023-08-20T13:32:16;7.82;;;2.60;;
9783;SDS011;4931;44.874;-1.092;2023-08-20T13:34:42;10.90;;;3.20;;
9783;SDS011;4931;44.874;-1.092;2023-08-20T13:37:07;8.43;;;3.20;;
9783;SDS011;4931;44.874;-1.092;2023-08-20T13:39:33;8.07;;;2.72;;
9783;SDS011;4931;44.874;-1.092;2023-08-20T13:41:58;6.55;;;2.38;;
9783;SDS011;4931;44.874;-1.092;2023-08-20T13:44:24;8.15;;;2.70;;
9783;SDS011;4931;44.874;-1.092;2023-08-20T13:46:49;8.18;;;2.70;;
9783;SDS011;4931;44.874;-1.092;2023-08-20T13:49:15;7.07;;;2.45;;
9783;SDS011;4931;44.874;-1.092;2023-08-20T13:51:40;9.20;;;2.70;;
9783;SDS011;4931;44.874;-1.092;2023-08-20T13:54:06;8.75;;;2.63;;
9783;SDS011;4931;44.874;-1.092;2023-08-20T13:56:31;5.25;;;2.10;;
9783;SDS011;4931;44.874;-1.092;2023-08-20T13:58:57;7.22;;;2.88;;
9783;SDS011;4931;44.874;-1.092;2023-08-20T14:01:22;5.95;;;2.40;;
9783;SDS011;4931;44.874;-1.092;2023-08-20T14:03:47;8.02;;;2.72;;
9783;SDS011;4931;44.874;-1.092;2023-08-20T14:06:14;7.47;;;2.05;;
9783;SDS011;4931;44.874;-1.092;2023-08-20T14:08:40;7.40;;;2.50;;
9783;SDS011;4931;44.874;-1.092;2023-08-20T14:11:06;8.82;;;2.78;;
9783;SDS011;4931;44.874;-1.092;2023-08-20T14:13:31;7.30;;;2.75;;
9783;SDS011;4931;44.874;-1.092;2023-08-20T14:15:57;9.00;;;2.15;;
9783;SDS011;4931;44.874;-1.092;2023-08-20T14:18:22;5.47;;;2.10;;
9783;SDS011;4931;44.874;-1.092;2023-08-20T14:20:48;6.60;;;2.17;;
9783;SDS011;4931;44.874;-1.092;2023-08-20T14:23:13;7.88;;;2.35;;
9783;SDS011;4931;44.874;-1.092;2023-08-20T14:25:39;6.65;;;1.95;;
9783;SDS011;4931;44.874;-1.092;2023-08-20T14:28:06;6.93;;;2.70;;
9783;SDS011;4931;44.874;-1.092;2023-08-20T14:30:35;6.40;;;2.22;;
9783;SDS011;4931;44.874;-1.092;2023-08-20T14:33:02;6.65;;;2.40;;
9783;SDS011;4931;44.874;-1.092;2023-08-20T14:35:28;9.38;;;2.45;;
9783;SDS011;4931;44.874;-1.092;2023-08-20T14:37:53;8.70;;;2.70;;
9783;SDS011;4931;44.874;-1.092;2023-08-20T14:40:19;6.75;;;2.55;;
9783;SDS011;4931;44.874;-1.092;2023-08-20T14:42:44;8.15;;;2.50;;
9783;SDS011;4931;44.874;-1.092;2023-08-20T14:45:10;7.05;;;2.40;;
9783;SDS011;4931;44.874;-1.092;2023-08-20T14:47:35;10.48;;;2.33;;
9783;SDS011;4931;44.874;-1.092;2023-08-20T14:50:01;8.63;;;2.45;;
9783;SDS011;4931;44.874;-1.092;2023-08-20T14:52:27;5.95;;;2.03;;
9783;SDS011;4931;44.874;-1.092;2023-08-20T14:54:52;7.43;;;2.33;;
9783;SDS011;4931;44.874;-1.092;2023-08-20T14:57:18;7.32;;;2.05;;
9783;SDS011;4931;44.874;-1.092;2023-08-20T14:59:44;7.43;;;2.10;;
9783;SDS011;4931;44.874;-1.092;2023-08-20T15:02:09;7.10;;;1.88;;
9783;SDS011;4931;44.874;-1.092;2023-08-20T15:04:35;7.18;;;2.42;;
9783;SDS011;4931;44.874;-1.092;2023-08-20T15:07:00;7.38;;;2.10;;
9783;SDS011;4931;44.874;-1.092;2023-08-20T15:09:26;10.32;;;2.22;;
9783;SDS011;4931;44.874;-1.092;2023-08-20T15:11:51;6.75;;;2.00;;
9783;SDS011;4931;44.874;-1.092;2023-08-20T15:14:16;8.88;;;2.58;;
9783;SDS011;4931;44.874;-1.092;2023-08-20T15:16:42;11.02;;;2.78;;
9783;SDS011;4931;44.874;-1.092;2023-08-20T15:19:07;6.65;;;2.28;;
9783;SDS011;4931;44.874;-1.092;2023-08-20T15:21:33;11.15;;;2.50;;